Campbells Island, Illinois
Current Conditions -  °F | °C
As of 11:52 AM on Saturday 25 Oct 2014 (Local Time) from KMLI Reporting Station
Clear Clear  
Wind Chill: 69°   Ceiling: Unl
Heat Index: 69°   Visibility: 10mi
Dew Point: 43°   Wind: 12mph
Humidity: 39%   Direction: 340°NNW
Pressure: 30.04"   Gusts: 17mph
Location:  41.5228°N, 90.3951°W
Report Text: KMLI 251652Z 34010G15KT 10SM CLR 21/06 A3004 RMK AO2 SLP170 T02060061 $
Loading
Personal Weather Stations






























Interactive Weather Map
Tropical Storm Tracking
New forecast layout! Learn more

10-Day Weather Forecast

Advertisements
Track Severe Weather on mobile